METAR Data
IDs: Format: Raw Decoded Include TAF

Data at: 1444 UTC 25 Jan 2020

METAR for:KPEA (Pella Muni, IA, US)
Text:KPEA 251435Z AUTO 29010KT 7SM OVC014 M01/M03 A3003 RMK AO2 T10101031
Temperature: -1.0°C ( 30°F)
Dewpoint: -3.1°C ( 26°F) [RH = 86%]
Pressure (altimeter):30.03 inches Hg (1017.0 mb)
Winds:from the WNW (290 degrees) at 12 MPH (10 knots; 5.1 m/s)
Visibility: 7 sm ( 11 km)
Ceiling:1400 feet AGL
Clouds: overcast cloud deck at 1400 feet AGL
QC Flag:automated observation with no human augmentation